Time;durP1;ratioP1;P1;durP2;ratioP2;P2;SDS_P1;SDS_P2;PMS_P1;PMS_P2;Temp;Humidity;BMP_temperature;BMP_pressure;BME280_temperature;BME280_humidity;BME280_pressure;Samples;Min_cycle;Max_cycle;Signal;HPM_P1;HPM_P2
2021/06/02 00:01:47;;;;;;;1.70;1.60;;;24.50;60.10;;;;;;5052841;28;20452;-88
2021/06/02 00:04:15;;;;;;;2.33;1.83;;;24.50;60.10;;;;;;5052911;28;20457;-88
2021/06/02 00:06:43;;;;;;;1.60;1.50;;;24.50;60.10;;;;;;5053263;28;20480;-87
2021/06/02 00:09:10;;;;;;;1.50;1.40;;;24.50;60.10;;;;;;5035102;28;20436;-87
2021/06/02 00:11:36;;;;;;;2.17;1.80;;;24.50;60.10;;;;;;5052643;28;20528;-87
2021/06/02 00:14:03;;;;;;;2.67;1.70;;;24.50;60.10;;;;;;5051958;28;20529;-88
2021/06/02 00:16:30;;;;;;;1.60;1.50;;;24.50;60.10;;;;;;5051927;28;20457;-88
2021/06/02 00:18:59;;;;;;;1.40;1.30;;;24.50;60.10;;;;;;5052799;28;20998;-88
2021/06/02 00:21:25;;;;;;;1.50;1.30;;;24.50;60.20;;;;;;5052678;28;20442;-88
2021/06/02 00:23:51;;;;;;;1.87;1.77;;;24.50;60.20;;;;;;5053073;28;20450;-89
2021/06/02 00:26:19;;;;;;;1.43;1.33;;;24.50;60.20;;;;;;5053032;28;20456;-89
2021/06/02 00:28:45;;;;;;;1.40;1.30;;;24.50;60.20;;;;;;5052679;28;20926;-88
2021/06/02 00:31:12;;;;;;;1.40;1.13;;;24.60;60.40;;;;;;5052633;28;20954;-88
2021/06/02 00:33:38;;;;;;;3.47;1.43;;;24.50;60.40;;;;;;5055450;28;20555;-87
2021/06/02 00:36:07;;;;;;;1.80;1.70;;;24.50;60.30;;;;;;5056266;28;20438;-86
2021/06/02 00:38:34;;;;;;;2.07;1.50;;;24.50;60.40;;;;;;5056269;28;20803;-87
2021/06/02 00:41:03;;;;;;;1.47;1.37;;;24.50;60.40;;;;;;5055940;28;20450;-87
2021/06/02 00:43:30;;;;;;;1.67;1.57;;;24.50;60.40;;;;;;5056045;28;20450;-86
2021/06/02 00:45:57;;;;;;;1.60;1.50;;;24.40;61.10;;;;;;5055717;28;20474;-87
2021/06/02 00:48:23;;;;;;;2.17;1.97;;;24.40;60.30;;;;;;5038074;28;20482;-88
2021/06/02 00:50:51;;;;;;;1.70;1.60;;;24.40;60.40;;;;;;5056148;28;20465;-88
2021/06/02 00:53:19;;;;;;;1.77;1.67;;;24.40;60.40;;;;;;5055772;28;20937;-88
2021/06/02 00:55:46;;;;;;;2.53;1.70;;;24.40;60.40;;;;;;5055762;28;20439;-89
2021/06/02 00:58:24;;;;;;;1.50;1.40;;;24.40;60.40;;;;;;5055754;28;20448;-88
2021/06/02 01:00:51;;;;;;;1.70;1.60;;;24.60;60.70;;;;;;5055777;28;20438;-88
2021/06/02 01:03:22;;;;;;;1.40;1.30;;;24.40;61.40;;;;;;5055166;28;20463;-88
2021/06/02 01:05:50;;;;;;;1.90;1.70;;;24.40;60.50;;;;;;5056096;28;20434;-87
2021/06/02 01:08:22;;;;;;;1.70;1.60;;;24.50;60.60;;;;;;5055853;28;20439;-87
2021/06/02 01:10:49;;;;;;;1.93;1.73;;;24.50;60.60;;;;;;5055707;28;20450;-88
2021/06/02 01:13:18;;;;;;;3.20;1.93;;;24.40;60.50;;;;;;5055813;28;20438;-87
2021/06/02 01:15:47;;;;;;;1.40;1.30;;;24.40;60.50;;;;;;5055473;28;20453;-87
2021/06/02 01:18:13;;;;;;;1.80;1.70;;;24.60;60.80;;;;;;5055544;28;20457;-88
2021/06/02 01:20:40;;;;;;;1.90;1.80;;;24.40;60.60;;;;;;5055409;28;20476;-91
2021/06/02 01:23:09;;;;;;;1.70;1.60;;;24.40;60.60;;;;;;5055368;28;20443;-87
2021/06/02 01:25:36;;;;;;;1.43;1.33;;;24.50;60.70;;;;;;5055310;28;20443;-86
2021/06/02 01:28:03;;;;;;;2.03;1.83;;;24.40;60.60;;;;;;5055466;28;20445;-90
2021/06/02 01:30:32;;;;;;;2.20;2.00;;;24.40;60.70;;;;;;5055995;28;20443;-87
2021/06/02 01:33:23;;;;;;;1.60;1.50;;;24.40;60.70;;;;;;5056271;28;20865;-88
2021/06/02 01:35:58;;;;;;;1.70;1.60;;;24.40;60.60;;;;;;5055095;28;20446;-91
2021/06/02 01:39:03;;;;;;;1.70;1.60;;;24.40;60.70;;;;;;5055033;28;20464;-91
2021/06/02 01:41:33;;;;;;;1.50;1.40;;;24.40;60.70;;;;;;5055241;28;20443;-88
2021/06/02 01:44:36;;;;;;;1.60;1.50;;;24.40;60.90;;;;;;5054595;28;20812;-89
2021/06/02 01:47:15;;;;;;;1.30;1.20;;;24.40;60.80;;;;;;5055015;28;20461;-88
2021/06/02 01:50:11;;;;;;;1.40;1.30;;;24.40;60.90;;;;;;5054806;28;20446;-88
2021/06/02 01:53:17;;;;;;;1.77;1.67;;;24.40;60.90;;;;;;5051833;28;20828;-88
2021/06/02 01:56:23;;;;;;;1.60;1.50;;;24.40;60.90;;;;;;5054562;28;20495;-87
2021/06/02 01:59:19;;;;;;;1.77;1.50;;;24.40;60.90;;;;;;5031300;28;20454;-88
2021/06/02 02:02:10;;;;;;;1.87;1.77;;;24.40;61.00;;;;;;5041315;28;20452;-88
2021/06/02 02:05:08;;;;;;;1.60;1.50;;;24.40;61.00;;;;;;5054739;28;20453;-87
2021/06/02 02:07:57;;;;;;;1.70;1.60;;;24.40;61.00;;;;;;5054696;28;20506;-88
2021/06/02 02:10:37;;;;;;;3.90;2.00;;;24.30;60.90;;;;;;5054710;28;20443;-88
2021/06/02 02:13:26;;;;;;;1.33;1.23;;;24.40;61.10;;;;;;5054565;28;20493;-88
2021/06/02 02:16:18;;;;;;;1.57;1.47;;;24.40;61.10;;;;;;5054414;28;20442;-86
2021/06/02 02:18:50;;;;;;;1.90;1.80;;;24.40;61.00;;;;;;5054519;28;20455;-86
2021/06/02 02:21:49;;;;;;;1.90;1.80;;;24.40;61.00;;;;;;5054366;28;20454;-88
2021/06/02 02:24:29;;;;;;;1.70;1.60;;;24.40;61.00;;;;;;5054707;28;20943;-88
2021/06/02 02:27:01;;;;;;;1.60;1.47;;;24.30;61.00;;;;;;5054203;28;20446;-88
2021/06/02 02:29:43;;;;;;;1.80;1.70;;;24.30;61.00;;;;;;5054182;28;20809;-87
2021/06/02 02:32:48;;;;;;;1.63;1.53;;;24.40;61.10;;;;;;5054095;28;20493;-89
2021/06/02 02:35:41;;;;;;;1.60;1.40;;;24.40;61.70;;;;;;5053659;28;20490;-90
2021/06/02 02:38:16;;;;;;;1.70;1.60;;;24.30;61.10;;;;;;5054097;28;20441;-86
2021/06/02 02:40:53;;;;;;;1.67;1.57;;;24.30;61.20;;;;;;5054199;28;20460;-90
2021/06/02 02:43:32;;;;;;;2.33;2.00;;;24.30;61.10;;;;;;5053920;28;20807;-90
2021/06/02 02:46:05;;;;;;;2.10;1.90;;;24.30;61.10;;;;;;5053521;28;20535;-89
2021/06/02 02:48:37;;;;;;;2.73;2.23;;;24.30;61.10;;;;;;5053668;28;20450;-89
2021/06/02 02:51:23;;;;;;;2.03;1.60;;;24.30;61.10;;;;;;5054201;28;20432;-90
2021/06/02 02:53:59;;;;;;;2.00;1.80;;;24.50;61.20;;;;;;5053465;28;20937;-89
2021/06/02 02:56:31;;;;;;;1.80;1.50;;;24.30;61.10;;;;;;5053020;28;20446;-88
2021/06/02 02:59:05;;;;;;;1.50;1.40;;;24.30;61.10;;;;;;5053691;28;20447;-87
2021/06/02 03:01:41;;;;;;;2.03;1.93;;;24.40;61.20;;;;;;5053616;28;20844;-90
2021/06/02 03:04:14;;;;;;;1.93;1.83;;;24.30;61.10;;;;;;5053468;28;20470;-89
2021/06/02 03:06:45;;;;;;;1.80;1.53;;;24.30;61.10;;;;;;5053498;28;20442;-88
2021/06/02 03:09:20;;;;;;;2.10;1.90;;;24.30;61.10;;;;;;5053459;28;20450;-89
2021/06/02 03:11:51;;;;;;;2.00;1.90;;;24.30;61.10;;;;;;5053629;28;20821;-89
2021/06/02 03:14:21;;;;;;;1.77;1.63;;;24.30;61.10;;;;;;5053364;28;20806;-90
2021/06/02 03:16:54;;;;;;;1.70;1.60;;;24.30;61.10;;;;;;5053432;28;20450;-90
2021/06/02 03:19:31;;;;;;;1.77;1.67;;;24.30;61.00;;;;;;5053433;28;20516;-90
2021/06/02 03:22:03;;;;;;;1.80;1.70;;;24.30;61.00;;;;;;5053371;28;20941;-90
2021/06/02 03:24:48;;;;;;;2.03;1.90;;;24.40;61.10;;;;;;5054023;28;20865;-88
2021/06/02 03:27:20;;;;;;;1.97;1.77;;;24.30;61.00;;;;;;5053442;28;20856;-90
2021/06/02 03:29:53;;;;;;;1.50;1.40;;;24.50;61.20;;;;;;5053669;28;20462;-88
2021/06/02 03:32:37;;;;;;;1.80;1.70;;;24.30;61.10;;;;;;5053416;28;20504;-90
2021/06/02 03:35:09;;;;;;;2.53;2.07;;;24.30;61.00;;;;;;5053248;28;20516;-88
2021/06/02 03:37:57;;;;;;;1.67;1.57;;;24.30;61.00;;;;;;5053441;28;20450;-87
2021/06/02 03:40:47;;;;;;;2.30;2.10;;;24.30;61.00;;;;;;5051848;28;20449;-87
2021/06/02 03:43:22;;;;;;;1.83;1.63;;;24.30;61.30;;;;;;5035555;28;21016;-88
2021/06/02 03:46:11;;;;;;;1.50;1.40;;;24.30;61.10;;;;;;5053192;28;20535;-87
2021/06/02 03:48:49;;;;;;;1.73;1.63;;;24.30;61.00;;;;;;5053603;28;20542;-89
2021/06/02 03:51:31;;;;;;;1.90;1.80;;;24.30;61.10;;;;;;5053532;28;20438;-89
2021/06/02 03:54:24;;;;;;;1.90;1.80;;;24.30;61.00;;;;;;5052853;28;20477;-89
2021/06/02 03:57:19;;;;;;;1.83;1.70;;;24.30;60.90;;;;;;5052950;28;20442;-89
2021/06/02 03:59:58;;;;;;;1.60;1.50;;;24.30;61.10;;;;;;5035460;28;20441;-88
2021/06/02 04:02:37;;;;;;;1.90;1.80;;;24.30;61.10;;;;;;5052741;28;20855;-87
2021/06/02 04:05:29;;;;;;;2.00;1.90;;;24.30;61.00;;;;;;5036332;28;20449;-87
2021/06/02 04:08:08;;;;;;;1.77;1.67;;;24.30;61.00;;;;;;5056437;28;20794;-88
2021/06/02 04:10:45;;;;;;;1.60;1.50;;;24.20;60.90;;;;;;5057191;28;20432;-88
2021/06/02 04:13:22;;;;;;;2.10;2.00;;;24.30;61.10;;;;;;5057094;28;20446;-90
2021/06/02 04:15:49;;;;;;;1.73;1.63;;;24.30;61.10;;;;;;5056524;28;20492;-88
2021/06/02 04:18:19;;;;;;;1.70;1.60;;;24.20;60.90;;;;;;5056808;28;20937;-87
2021/06/02 04:20:46;;;;;;;2.30;2.10;;;24.30;61.10;;;;;;5056633;28;20446;-87
2021/06/02 04:23:15;;;;;;;2.10;1.90;;;24.30;61.10;;;;;;5038792;28;20447;-88
2021/06/02 04:25:46;;;;;;;2.07;1.90;;;24.30;61.10;;;;;;5055778;28;20442;-88
2021/06/02 04:28:13;;;;;;;2.67;2.47;;;24.30;61.00;;;;;;5055899;28;20806;-89
2021/06/02 04:30:48;;;;;;;2.40;2.30;;;24.30;61.00;;;;;;5056912;28;20445;-90
2021/06/02 04:33:16;;;;;;;2.20;2.10;;;24.30;61.20;;;;;;5056806;28;20465;-90
2021/06/02 04:35:49;;;;;;;2.50;2.37;;;24.30;61.20;;;;;;5056901;28;20485;-90
2021/06/02 04:38:19;;;;;;;2.83;2.63;;;24.20;61.10;;;;;;5056763;28;20500;-90
2021/06/02 04:40:47;;;;;;;2.60;2.40;;;24.20;61.10;;;;;;5057066;28;20446;-89
2021/06/02 04:43:14;;;;;;;2.60;1.57;;;24.40;61.30;;;;;;5038954;28;20443;-91
2021/06/02 04:45:53;;;;;;;2.20;2.00;;;24.30;61.00;;;;;;5056274;28;20471;-91
2021/06/02 04:48:19;;;;;;;2.50;2.30;;;24.20;60.90;;;;;;5056878;28;20454;-92
2021/06/02 04:50:57;;;;;;;2.33;2.23;;;24.20;62.00;;;;;;5056589;28;20442;-91
2021/06/02 04:54:05;;;;;;;2.50;2.40;;;24.20;61.30;;;;;;5059009;28;20925;-89
2021/06/02 04:57:17;;;;;;;2.30;2.13;;;24.30;61.50;;;;;;5057212;28;20437;-91
2021/06/02 05:00:13;;;;;;;2.33;2.17;;;24.20;61.60;;;;;;5037420;28;20782;-92
2021/06/02 05:03:20;;;;;;;2.10;2.00;;;24.20;61.60;;;;;;5056459;28;20464;-92
2021/06/02 05:06:30;;;;;;;2.40;2.20;;;24.30;61.90;;;;;;5057572;28;20865;-92
2021/06/02 05:09:07;;;;;;;2.60;2.40;;;24.30;62.10;;;;;;5056797;28;20489;-91
2021/06/02 05:12:24;;;;;;;2.07;1.87;;;24.20;61.80;;;;;;5056816;28;20906;-91
2021/06/02 05:15:41;;;;;;;2.27;2.17;;;24.20;61.60;;;;;;5055810;28;21012;-91
2021/06/02 05:18:49;;;;;;;2.37;2.20;;;24.20;61.80;;;;;;5055395;28;20446;-89
2021/06/02 05:22:05;;;;;;;2.20;2.00;;;24.20;61.90;;;;;;5055756;28;20442;-90
2021/06/02 05:25:09;;;;;;;3.47;2.87;;;24.20;61.90;;;;;;5055569;28;20942;-89
2021/06/02 05:28:06;;;;;;;3.33;2.17;;;24.20;62.10;;;;;;5056003;28;20426;-90
2021/06/02 05:31:13;;;;;;;2.00;1.90;;;24.20;62.10;;;;;;5055745;28;20987;-89
2021/06/02 05:34:05;;;;;;;2.70;2.50;;;24.20;62.30;;;;;;5054344;28;20467;-90
2021/06/02 05:36:53;;;;;;;2.50;2.30;;;24.20;62.40;;;;;;5055265;28;20443;-90
2021/06/02 05:40:09;;;;;;;2.47;2.27;;;24.20;62.40;;;;;;5055293;28;20447;-90
2021/06/02 05:43:08;;;;;;;1.93;1.83;;;24.30;62.30;;;;;;4995949;28;20866;-90
2021/06/02 05:46:06;;;;;;;3.47;2.20;;;24.20;62.30;;;;;;5055027;28;20465;-90
2021/06/02 05:49:06;;;;;;;3.63;2.53;;;24.20;62.20;;;;;;5055126;28;20778;-90
2021/06/02 05:52:07;;;;;;;2.20;1.93;;;24.20;62.20;;;;;;5055154;28;20457;-89
2021/06/02 05:55:09;;;;;;;2.03;1.83;;;24.20;62.20;;;;;;5040018;28;20487;-90
2021/06/02 05:58:14;;;;;;;2.13;2.03;;;24.30;62.30;;;;;;5037460;28;20781;-90
2021/06/02 06:01:12;;;;;;;1.80;1.70;;;24.30;62.30;;;;;;5054822;28;20442;-90
2021/06/02 06:04:13;;;;;;;2.80;2.53;;;24.20;62.20;;;;;;5055181;28;20463;-90
2021/06/02 06:06:46;;;;;;;2.43;2.23;;;24.30;62.40;;;;;;5054676;28;20438;-89
2021/06/02 06:10:02;;;;;;;2.00;1.90;;;24.20;62.10;;;;;;5037211;28;20457;-88
2021/06/02 06:13:07;;;;;;;2.80;2.60;;;24.20;62.10;;;;;;5054258;28;20454;-89
2021/06/02 06:16:14;;;;;;;2.40;2.20;;;24.20;62.20;;;;;;5053783;28;20488;-90
2021/06/02 06:19:03;;;;;;;1.83;1.73;;;24.20;62.40;;;;;;5053779;28;20447;-89
2021/06/02 06:21:55;;;;;;;2.53;1.97;;;24.20;62.50;;;;;;5053696;28;20453;-88
2021/06/02 06:24:26;;;;;;;2.50;2.30;;;24.30;62.60;;;;;;5053889;28;20454;-89
2021/06/02 06:27:02;;;;;;;2.33;2.13;;;24.30;62.70;;;;;;5053667;28;20488;-85
2021/06/02 06:29:34;;;;;;;2.40;2.20;;;24.30;62.60;;;;;;5072657;28;20457;-86
2021/06/02 06:32:02;;;;;;;5.00;2.27;;;24.30;62.10;;;;;;5068946;28;20442;-87
2021/06/02 06:34:33;;;;;;;2.73;2.50;;;24.30;61.90;;;;;;5043410;28;20474;-86
2021/06/02 06:37:01;;;;;;;2.17;2.07;;;24.30;61.80;;;;;;5053393;28;20475;-89
2021/06/02 06:39:40;;;;;;;2.47;2.27;;;24.40;61.90;;;;;;5053443;28;20461;-86
2021/06/02 06:42:07;;;;;;;2.90;2.70;;;24.20;61.70;;;;;;5053226;28;20443;-88
2021/06/02 06:44:38;;;;;;;2.73;2.00;;;24.20;61.80;;;;;;5053205;28;20474;-90
2021/06/02 06:47:07;;;;;;;2.33;2.03;;;24.20;61.80;;;;;;5053401;28;20455;-88
2021/06/02 06:49:36;;;;;;;2.37;2.27;;;24.20;61.90;;;;;;5053206;28;20935;-87
2021/06/02 06:52:03;;;;;;;2.77;2.57;;;24.30;62.00;;;;;;5052916;28;20953;-87
2021/06/02 06:54:32;;;;;;;1.80;1.70;;;24.20;61.90;;;;;;5052867;28;20482;-87
2021/06/02 06:57:00;;;;;;;3.60;3.00;;;24.20;61.90;;;;;;5053122;28;20544;-88
2021/06/02 06:59:27;;;;;;;2.10;1.90;;;24.20;61.90;;;;;;5052582;28;20486;-88
2021/06/02 07:01:54;;;;;;;2.63;1.93;;;24.20;61.90;;;;;;5053825;28;20443;-88
2021/06/02 07:04:21;;;;;;;2.37;2.17;;;24.20;61.70;;;;;;5062045;28;20461;-88
2021/06/02 07:06:49;;;;;;;6.00;2.57;;;24.20;61.80;;;;;;5063171;28;20492;-89
2021/06/02 07:09:17;;;;;;;2.27;2.17;;;24.20;61.70;;;;;;5057373;28;20455;-88
2021/06/02 07:11:44;;;;;;;2.00;1.67;;;24.20;61.70;;;;;;5057947;28;20534;-87
2021/06/02 07:14:15;;;;;;;2.60;2.40;;;24.20;61.70;;;;;;5060288;28;21038;-94
2021/06/02 07:16:42;;;;;;;3.20;2.63;;;24.20;61.80;;;;;;5062150;28;20465;-94
2021/06/02 07:19:11;;;;;;;2.53;2.33;;;24.20;61.70;;;;;;5065599;28;20537;-91
2021/06/02 07:21:43;;;;;;;2.40;2.20;;;24.20;61.50;;;;;;5078743;28;20421;-93
2021/06/02 07:24:12;;;;;;;1.70;1.60;;;24.40;61.50;;;;;;5076985;28;20438;-96
2021/06/02 07:26:46;;;;;;;2.30;2.10;;;24.20;61.50;;;;;;5075392;28;21018;-93
2021/06/02 07:29:13;;;;;;;2.63;2.10;;;24.20;61.40;;;;;;5078523;28;20422;-96
2021/06/02 07:31:41;;;;;;;2.80;2.60;;;24.20;61.20;;;;;;5078635;28;20449;-96
2021/06/02 07:34:08;;;;;;;1.80;1.70;;;24.20;61.00;;;;;;5077546;28;20500;-90
2021/06/02 07:36:34;;;;;;;2.10;1.90;;;24.20;61.00;;;;;;5074512;28;20590;-92
2021/06/02 07:39:03;;;;;;;4.80;2.07;;;24.30;61.30;;;;;;5075090;28;20454;-86
2021/06/02 07:41:32;;;;;;;5.93;2.40;;;24.30;61.50;;;;;;5076061;28;20446;-89
2021/06/02 07:43:58;;;;;;;2.20;1.80;;;24.30;61.50;;;;;;5080084;28;20817;-88
2021/06/02 07:46:25;;;;;;;2.27;2.07;;;24.30;61.50;;;;;;5079855;28;20480;-87
2021/06/02 07:48:51;;;;;;;1.80;1.70;;;24.30;61.50;;;;;;5080047;28;20544;-86
2021/06/02 07:51:18;;;;;;;2.50;2.10;;;24.30;61.70;;;;;;5079806;28;20442;-86
2021/06/02 07:53:44;;;;;;;2.47;2.23;;;24.40;62.00;;;;;;5079708;28;20446;-89
2021/06/02 07:56:10;;;;;;;3.30;2.57;;;24.30;61.90;;;;;;5079674;28;20485;-89
2021/06/02 07:58:39;;;;;;;3.50;2.27;;;24.30;62.00;;;;;;5079820;28;20449;-89
2021/06/02 08:01:05;;;;;;;3.63;1.70;;;24.30;62.10;;;;;;5079630;28;20445;-89
2021/06/02 08:03:31;;;;;;;2.47;2.23;;;24.30;62.30;;;;;;5079570;28;20461;-89
2021/06/02 08:05:58;;;;;;;2.30;2.10;;;24.40;62.50;;;;;;5079745;28;20461;-89
2021/06/02 08:08:24;;;;;;;2.00;1.90;;;24.40;62.50;;;;;;5079504;28;20449;-89
2021/06/02 08:10:50;;;;;;;4.20;3.03;;;24.50;62.70;;;;;;5079790;28;20453;-89
2021/06/02 08:13:17;;;;;;;3.00;1.93;;;24.40;62.80;;;;;;5079636;28;20456;-90
2021/06/02 08:15:44;;;;;;;6.53;1.93;;;24.50;62.80;;;;;;5080634;28;20490;-90
2021/06/02 08:18:11;;;;;;;2.43;2.23;;;24.40;62.60;;;;;;5081060;28;20453;-89
2021/06/02 08:20:37;;;;;;;2.63;1.53;;;24.40;63.30;;;;;;5080524;28;20450;-89
2021/06/02 08:23:03;;;;;;;3.77;1.73;;;24.40;62.10;;;;;;5080310;28;20455;-87
2021/06/02 08:25:29;;;;;;;4.83;2.20;;;24.40;61.90;;;;;;5079024;28;20442;-87
2021/06/02 08:27:56;;;;;;;3.03;2.13;;;24.40;62.10;;;;;;5078976;28;20449;-90
2021/06/02 08:30:23;;;;;;;2.63;2.20;;;24.40;62.10;;;;;;5077877;28;20445;-89
2021/06/02 08:32:50;;;;;;;2.50;2.13;;;24.30;61.90;;;;;;5078035;28;20466;-89
2021/06/02 08:35:18;;;;;;;2.50;1.90;;;24.50;62.00;;;;;;5077949;28;21010;-89
2021/06/02 08:37:45;;;;;;;2.50;1.90;;;24.30;61.80;;;;;;5078324;28;20450;-89
2021/06/02 08:40:12;;;;;;;3.20;2.43;;;24.30;61.80;;;;;;5078467;28;20437;-89
2021/06/02 08:42:41;;;;;;;2.50;2.30;;;24.30;61.80;;;;;;5077909;28;20446;-89
2021/06/02 08:45:10;;;;;;;2.60;2.03;;;24.40;62.00;;;;;;5077964;28;20466;-89
2021/06/02 08:47:36;;;;;;;6.80;2.67;;;24.40;61.90;;;;;;5078484;28;20445;-90
2021/06/02 08:50:05;;;;;;;4.17;2.27;;;24.40;61.90;;;;;;5079214;28;20457;-87
2021/06/02 08:52:35;;;;;;;3.40;1.87;;;24.40;62.00;;;;;;5077768;28;20442;-86
2021/06/02 08:55:03;;;;;;;2.80;1.83;;;24.40;61.90;;;;;;5075573;28;21023;-86
2021/06/02 08:57:29;;;;;;;2.13;1.93;;;24.40;61.70;;;;;;5076094;28;20495;-87
2021/06/02 08:59:55;;;;;;;5.70;1.97;;;24.40;61.60;;;;;;5076282;28;20449;-87
2021/06/02 09:02:22;;;;;;;2.07;1.93;;;24.40;61.40;;;;;;5075833;28;20469;-87
2021/06/02 09:04:48;;;;;;;3.07;1.73;;;24.40;61.30;;;;;;5075908;28;20447;-91
2021/06/02 09:07:16;;;;;;;2.23;2.00;;;24.40;61.30;;;;;;5076459;28;20448;-91
2021/06/02 09:09:43;;;;;;;2.27;2.07;;;24.40;61.40;;;;;;5074976;28;20478;-91
2021/06/02 09:12:14;;;;;;;2.67;1.97;;;24.40;61.50;;;;;;5075642;28;20447;-91
2021/06/02 09:14:40;;;;;;;3.87;2.43;;;24.40;61.60;;;;;;5075492;28;20809;-90
2021/06/02 09:17:08;;;;;;;1.80;1.70;;;24.40;61.60;;;;;;5075155;28;20454;-89
2021/06/02 09:19:37;;;;;;;2.57;1.90;;;24.40;61.70;;;;;;5075059;28;20447;-89
2021/06/02 09:22:05;;;;;;;3.40;2.33;;;24.40;61.60;;;;;;5074994;28;20464;-90
2021/06/02 09:24:56;;;;;;;1.70;1.60;;;24.40;61.60;;;;;;5075038;28;20454;-89
2021/06/02 09:27:47;;;;;;;2.47;1.80;;;24.50;61.70;;;;;;5075766;28;20499;-90
2021/06/02 09:30:16;;;;;;;1.60;1.50;;;24.50;61.60;;;;;;5075439;28;20500;-91
2021/06/02 09:32:48;;;;;;;1.60;1.50;;;24.40;61.70;;;;;;5058038;28;20462;-90
2021/06/02 09:35:16;;;;;;;3.10;1.70;;;24.50;61.70;;;;;;5075101;28;20821;-91
2021/06/02 09:37:56;;;;;;;2.97;2.70;;;24.50;61.60;;;;;;5075451;28;20802;-91
2021/06/02 09:40:27;;;;;;;2.73;1.77;;;24.50;61.60;;;;;;5075261;28;20449;-90
2021/06/02 09:42:54;;;;;;;3.10;2.40;;;24.60;61.80;;;;;;5074920;28;20868;-90
2021/06/02 09:45:21;;;;;;;2.70;1.97;;;24.50;61.60;;;;;;5074507;28;20477;-89
2021/06/02 09:47:49;;;;;;;2.47;1.83;;;24.50;61.60;;;;;;5074940;28;20948;-89
2021/06/02 09:50:19;;;;;;;2.83;1.60;;;24.50;61.60;;;;;;5075114;28;20441;-91
2021/06/02 09:52:48;;;;;;;1.87;1.77;;;24.50;61.60;;;;;;5074588;28;20469;-89
2021/06/02 09:55:20;;;;;;;2.37;1.97;;;24.50;61.50;;;;;;5074531;28;20481;-90
2021/06/02 09:57:55;;;;;;;1.90;1.70;;;24.50;61.50;;;;;;5074605;28;20445;-90
2021/06/02 10:00:21;;;;;;;2.17;1.70;;;24.60;61.60;;;;;;5074291;28;20445;-91
2021/06/02 10:02:57;;;;;;;1.70;1.60;;;24.50;61.50;;;;;;5056233;28;20461;-89
2021/06/02 10:05:24;;;;;;;2.43;1.73;;;24.60;61.60;;;;;;5073820;28;20459;-91
2021/06/02 10:07:50;;;;;;;1.70;1.60;;;24.60;61.60;;;;;;5074260;28;20438;-89
2021/06/02 10:10:19;;;;;;;1.97;1.87;;;24.60;61.60;;;;;;5056453;28;20442;-90
2021/06/02 10:13:02;;;;;;;2.07;1.63;;;24.60;61.50;;;;;;5074350;28;20474;-89
2021/06/02 10:15:32;;;;;;;2.00;1.80;;;24.60;61.50;;;;;;5073696;28;20490;-91
2021/06/02 10:17:59;;;;;;;2.60;1.73;;;24.60;61.60;;;;;;5073953;28;20499;-90
2021/06/02 10:20:25;;;;;;;1.57;1.47;;;24.60;61.60;;;;;;5074025;28;20450;-90
2021/06/02 10:22:54;;;;;;;2.10;1.73;;;24.60;61.60;;;;;;5073845;28;20453;-91
2021/06/02 10:25:23;;;;;;;1.50;1.40;;;24.60;61.50;;;;;;5073599;28;20443;-89
2021/06/02 10:27:53;;;;;;;2.67;1.80;;;24.60;61.60;;;;;;5073995;28;20499;-91
2021/06/02 10:30:22;;;;;;;2.10;1.80;;;24.60;61.50;;;;;;5073673;28;20449;-88
2021/06/02 10:32:50;;;;;;;2.03;1.80;;;24.60;61.50;;;;;;5073498;28;20465;-89
2021/06/02 10:35:16;;;;;;;1.70;1.60;;;24.60;61.50;;;;;;5073610;28;20496;-89
2021/06/02 10:37:44;;;;;;;3.50;2.10;;;24.60;61.50;;;;;;5073543;28;20451;-90
2021/06/02 10:40:14;;;;;;;3.20;1.60;;;24.60;61.60;;;;;;5073658;28;20454;-91
2021/06/02 10:42:48;;;;;;;2.50;1.50;;;24.60;61.50;;;;;;5073574;28;20449;-88
2021/06/02 10:45:20;;;;;;;2.10;1.90;;;24.70;61.70;;;;;;5073009;28;20473;-88
2021/06/02 10:47:58;;;;;;;1.40;1.30;;;24.70;61.80;;;;;;5073576;28;20454;-90
2021/06/02 10:50:29;;;;;;;1.80;1.70;;;24.70;61.70;;;;;;5073190;28;20483;-90
2021/06/02 10:52:55;;;;;;;2.20;2.00;;;24.60;61.50;;;;;;5073100;28;20438;-90
2021/06/02 10:55:33;;;;;;;1.90;1.50;;;24.60;61.60;;;;;;5072944;28;21009;-86
2021/06/02 10:58:30;;;;;;;2.13;1.67;;;24.70;61.70;;;;;;5072889;28;20450;-87
2021/06/02 11:01:19;;;;;;;1.43;1.33;;;24.70;61.40;;;;;;5073021;28;20449;-86
2021/06/02 11:04:08;;;;;;;1.67;1.57;;;24.70;61.20;;;;;;5073016;28;20476;-86
2021/06/02 11:06:37;;;;;;;1.50;1.40;;;24.70;61.40;;;;;;5072846;28;20459;-86
2021/06/02 11:09:22;;;;;;;1.67;1.57;;;24.70;61.40;;;;;;5072990;28;20447;-90
2021/06/02 11:12:00;;;;;;;1.97;1.77;;;24.70;61.30;;;;;;5073444;28;20495;-89
2021/06/02 11:14:27;;;;;;;3.00;2.10;;;24.60;61.30;;;;;;5072871;28;20447;-91
2021/06/02 11:17:00;;;;;;;2.20;1.57;;;24.70;61.50;;;;;;5072195;28;20530;-90
2021/06/02 11:19:30;;;;;;;2.80;1.50;;;24.60;61.40;;;;;;5072860;28;20452;-90
2021/06/02 11:22:01;;;;;;;2.13;1.83;;;24.60;61.40;;;;;;5072885;28;20501;-89
2021/06/02 11:24:40;;;;;;;2.83;1.80;;;24.80;61.70;;;;;;5072773;28;20905;-91
2021/06/02 11:27:35;;;;;;;1.83;1.73;;;24.60;61.40;;;;;;5072787;28;20442;-90
2021/06/02 11:30:23;;;;;;;1.73;1.63;;;24.60;61.40;;;;;;5072741;28;20440;-89
2021/06/02 11:33:13;;;;;;;4.20;1.90;;;24.60;61.40;;;;;;5065237;28;20474;-90
2021/06/02 11:36:05;;;;;;;4.80;1.77;;;24.60;61.50;;;;;;5072537;28;20482;-90
2021/06/02 11:38:33;;;;;;;2.07;1.87;;;24.60;61.40;;;;;;5073057;28;20502;-90
2021/06/02 11:40:59;;;;;;;1.70;1.60;;;24.60;61.50;;;;;;5072544;28;20964;-88
2021/06/02 11:43:26;;;;;;;1.57;1.47;;;24.60;61.50;;;;;;5072527;28;20493;-90
2021/06/02 11:45:55;;;;;;;2.10;1.90;;;24.60;61.50;;;;;;5072352;28;20525;-89
2021/06/02 11:48:31;;;;;;;1.70;1.60;;;24.70;61.50;;;;;;5072623;28;20451;-91
2021/06/02 11:51:06;;;;;;;2.87;1.77;;;24.70;61.50;;;;;;5072415;28;20444;-91
2021/06/02 11:53:40;;;;;;;1.73;1.60;;;24.70;61.50;;;;;;5072631;28;20443;-90
2021/06/02 11:56:07;;;;;;;1.60;1.50;;;24.70;61.50;;;;;;5072518;28;20494;-89
2021/06/02 11:58:33;;;;;;;1.50;1.40;;;24.70;61.50;;;;;;5072808;28;20490;-90
2021/06/02 12:00:59;;;;;;;2.20;1.70;;;24.70;61.50;;;;;;5072619;28;20444;-90
2021/06/02 12:03:26;;;;;;;3.37;1.90;;;24.70;61.50;;;;;;5072251;28;20458;-90
2021/06/02 12:05:53;;;;;;;3.20;1.70;;;24.70;61.50;;;;;;5072590;28;20453;-90
2021/06/02 12:08:22;;;;;;;2.60;1.50;;;24.70;61.50;;;;;;5072497;28;20791;-91
2021/06/02 12:10:51;;;;;;;1.77;1.67;;;24.80;61.50;;;;;;5072374;28;20519;-91
2021/06/02 12:13:18;;;;;;;1.63;1.43;;;24.70;61.50;;;;;;5072228;28;20461;-90
2021/06/02 12:15:46;;;;;;;1.60;1.40;;;24.70;61.50;;;;;;5071940;28;20501;-90
2021/06/02 12:18:40;;;;;;;2.47;1.50;;;24.70;61.50;;;;;;5072330;28;20451;-90
2021/06/02 12:21:08;;;;;;;1.40;1.30;;;24.70;61.40;;;;;;5072310;28;20450;-90
2021/06/02 12:23:50;;;;;;;1.70;1.60;;;24.80;61.50;;;;;;5072383;28;20461;-91
2021/06/02 12:26:21;;;;;;;1.73;1.50;;;24.70;61.50;;;;;;5054404;28;20443;-90
2021/06/02 12:28:48;;;;;;;3.03;1.63;;;24.70;61.40;;;;;;5075162;28;20442;-89
2021/06/02 12:31:38;;;;;;;1.50;1.40;;;24.70;61.40;;;;;;5075799;28;20449;-90
2021/06/02 12:34:08;;;;;;;3.20;1.43;;;24.80;61.40;;;;;;5075848;28;20441;-89
2021/06/02 12:36:36;;;;;;;2.17;1.60;;;24.70;61.20;;;;;;5075642;28;20623;-89
2021/06/02 12:39:08;;;;;;;1.70;1.60;;;24.70;61.20;;;;;;5075760;28;20450;-90
2021/06/02 12:41:34;;;;;;;1.77;1.57;;;24.90;61.50;;;;;;5075950;28;20442;-90
2021/06/02 12:44:02;;;;;;;2.50;1.60;;;24.80;61.40;;;;;;5075357;28;20940;-90
2021/06/02 12:46:29;;;;;;;1.90;1.50;;;24.80;61.40;;;;;;5075412;28;20473;-89
2021/06/02 12:48:56;;;;;;;1.30;1.20;;;24.80;61.40;;;;;;5075524;28;20499;-90
2021/06/02 12:51:24;;;;;;;1.60;1.50;;;24.80;61.40;;;;;;5075757;28;20946;-90
2021/06/02 12:53:52;;;;;;;1.40;1.30;;;24.80;61.40;;;;;;5075253;28;20451;-91
2021/06/02 12:56:20;;;;;;;1.60;1.50;;;24.80;61.20;;;;;;5075542;28;20489;-90
2021/06/02 12:58:55;;;;;;;1.70;1.20;;;24.90;61.40;;;;;;5057458;28;20459;-90
2021/06/02 13:01:27;;;;;;;1.70;1.60;;;24.80;61.30;;;;;;5075404;28;20456;-91
2021/06/02 13:03:56;;;;;;;2.30;1.40;;;24.80;61.30;;;;;;5075136;28;20972;-89
2021/06/02 13:06:23;;;;;;;2.90;1.77;;;24.80;61.30;;;;;;5075415;28;20442;-90
2021/06/02 13:08:50;;;;;;;2.00;1.80;;;24.80;61.30;;;;;;5075174;28;20443;-90
2021/06/02 13:11:21;;;;;;;2.30;1.63;;;24.80;61.30;;;;;;5075127;28;20445;-90
2021/06/02 13:13:49;;;;;;;1.43;1.23;;;24.80;61.30;;;;;;5075061;28;20786;-89
2021/06/02 13:16:15;;;;;;;1.87;1.77;;;24.80;61.30;;;;;;5074924;28;20600;-90
2021/06/02 13:18:42;;;;;;;2.07;1.87;;;24.80;61.30;;;;;;5075099;28;20443;-89
2021/06/02 13:21:13;;;;;;;1.70;1.57;;;24.80;61.30;;;;;;5075383;28;20450;-90
2021/06/02 13:23:42;;;;;;;2.80;1.50;;;24.80;61.30;;;;;;5075184;28;20455;-89
2021/06/02 13:26:09;;;;;;;1.70;1.60;;;24.80;61.40;;;;;;5056968;28;20448;-89
2021/06/02 13:28:43;;;;;;;1.63;1.30;;;24.90;61.60;;;;;;5074810;28;20440;-91
2021/06/02 13:31:10;;;;;;;1.43;1.33;;;24.80;61.40;;;;;;5075186;28;20474;-89